createdAt,value
2024-02-13T00:06:18.271Z,100.00
2024-02-13T00:16:24.350Z,100.00
2024-02-13T00:26:30.419Z,100.00
2024-02-13T00:36:36.376Z,100.00
2024-02-13T00:46:42.583Z,100.00
2024-02-13T00:56:49.102Z,100.00
2024-02-13T01:06:55.490Z,100.00
2024-02-13T01:17:02.212Z,100.00
2024-02-13T01:27:08.743Z,100.00
2024-02-13T01:37:14.816Z,100.00
2024-02-13T01:47:23.146Z,100.00
2024-02-13T01:57:31.139Z,100.00
2024-02-13T02:07:38.916Z,100.00
2024-02-13T02:17:52.741Z,100.00
2024-02-13T02:27:59.511Z,100.00
2024-02-13T02:38:06.416Z,100.00
2024-02-13T02:48:16.232Z,100.00
2024-02-13T02:58:25.409Z,100.00
2024-02-13T03:08:35.132Z,100.00
2024-02-13T03:18:41.303Z,100.00
2024-02-13T03:28:47.556Z,100.00
2024-02-13T03:38:54.872Z,100.00
2024-02-13T03:49:01.074Z,100.00
2024-02-13T03:59:07.030Z,100.00
2024-02-13T04:09:13.184Z,100.00
2024-02-13T04:19:19.449Z,100.00
2024-02-13T04:29:25.422Z,100.00
2024-02-13T04:39:31.879Z,100.00
2024-02-13T04:49:38.176Z,100.00
2024-02-13T04:59:50.360Z,100.00
2024-02-13T05:09:59.372Z,100.00
2024-02-13T05:20:12.868Z,100.00
2024-02-13T05:30:19.732Z,100.00
2024-02-13T05:40:26.267Z,100.00
2024-02-13T05:50:32.459Z,100.00
2024-02-13T06:00:38.951Z,100.00
2024-02-13T06:10:45.534Z,100.00
2024-02-13T06:20:51.807Z,100.00
2024-02-13T06:31:01.150Z,100.00
2024-02-13T06:41:07.603Z,100.00
2024-02-13T06:51:15.510Z,100.00
2024-02-13T07:01:27.124Z,100.00
2024-02-13T07:11:33.364Z,100.00
2024-02-13T07:21:39.530Z,100.00
2024-02-13T07:31:45.619Z,100.00
2024-02-13T07:41:52.301Z,100.00
2024-02-13T07:52:01.144Z,100.00
2024-02-13T08:02:07.553Z,100.00
2024-02-13T08:12:14.180Z,100.00
2024-02-13T08:22:20.524Z,100.00
2024-02-13T08:32:28.357Z,100.00
2024-02-13T08:42:36.212Z,100.00
2024-02-13T08:52:44.470Z,100.00
2024-02-13T09:02:50.847Z,100.00
2024-02-13T09:12:57.307Z,100.00
2024-02-13T09:23:03.686Z,100.00
2024-02-13T09:33:11.092Z,100.00
2024-02-13T09:43:20.342Z,100.00
2024-02-13T09:53:28.656Z,100.00
2024-02-13T10:03:34.959Z,100.00
2024-02-13T10:13:46.697Z,100.00
2024-02-13T10:23:55.871Z,100.00
2024-02-13T10:34:05.007Z,100.00
2024-02-13T10:44:13.210Z,100.00
2024-02-13T10:54:19.408Z,100.00
2024-02-13T11:04:28.066Z,100.00
2024-02-13T11:14:34.723Z,100.00
2024-02-13T11:24:52.745Z,100.00
2024-02-13T11:35:01.161Z,100.00
2024-02-13T11:45:09.516Z,100.00
2024-02-13T11:55:16.396Z,100.00
2024-02-13T12:05:26.369Z,100.00
2024-02-13T12:15:32.855Z,100.00
2024-02-13T12:25:39.151Z,100.00
2024-02-13T12:35:48.213Z,100.00
2024-02-13T12:45:56.653Z,100.00
2024-02-13T12:56:04.280Z,100.00
2024-02-13T13:06:13.133Z,100.00
2024-02-13T13:16:20.370Z,100.00
2024-02-13T13:26:35.742Z,100.00
2024-02-13T13:36:42.399Z,100.00
2024-02-13T13:46:52.245Z,100.00
2024-02-13T13:56:58.590Z,100.00
2024-02-13T14:07:07.051Z,100.00
2024-02-13T14:17:13.076Z,99.84
2024-02-13T14:27:20.234Z,99.71
2024-02-13T14:37:26.985Z,99.63
2024-02-13T14:47:35.342Z,99.47
2024-02-13T14:57:47.141Z,99.44
2024-02-13T15:08:04.989Z,99.25
2024-02-13T15:18:12.218Z,99.01
2024-02-13T15:28:18.598Z,99.27
2024-02-13T15:38:41.984Z,99.64
2024-02-13T15:48:48.203Z,99.95
2024-02-13T15:58:54.531Z,100.00
2024-02-13T16:09:00.853Z,100.00
2024-02-13T16:19:09.711Z,100.00
2024-02-13T16:29:15.781Z,100.00
2024-02-13T16:39:24.018Z,100.00
2024-02-13T16:49:30.130Z,100.00
2024-02-13T16:59:35.952Z,100.00
2024-02-13T17:09:42.449Z,100.00
2024-02-13T17:19:48.840Z,100.00
2024-02-13T17:29:55.086Z,100.00
2024-02-13T17:40:01.855Z,100.00
2024-02-13T17:50:10.015Z,100.00
2024-02-13T18:00:23.073Z,100.00
2024-02-13T18:10:29.292Z,100.00
2024-02-13T18:20:35.797Z,100.00
2024-02-13T18:30:42.131Z,100.00
2024-02-13T18:40:49.916Z,100.00
2024-02-13T18:50:56.253Z,100.00
2024-02-13T19:01:02.262Z,100.00
2024-02-13T19:11:08.823Z,100.00
2024-02-13T19:21:15.140Z,100.00
2024-02-13T19:31:25.007Z,100.00
2024-02-13T19:41:32.272Z,100.00
2024-02-13T19:51:39.570Z,100.00
2024-02-13T20:01:45.561Z,100.00
2024-02-13T20:11:51.663Z,100.00
2024-02-13T20:21:57.474Z,100.00
2024-02-13T20:32:04.946Z,100.00
2024-02-13T20:42:11.950Z,100.00
2024-02-13T20:52:16.471Z,100.00
2024-02-13T21:02:22.513Z,100.00
2024-02-13T21:12:29.322Z,100.00
2024-02-13T21:22:49.173Z,100.00
2024-02-13T21:32:54.962Z,100.00
2024-02-13T21:43:01.635Z,100.00
2024-02-13T21:53:07.840Z,100.00
2024-02-13T22:03:14.143Z,100.00
2024-02-13T22:13:22.340Z,100.00
2024-02-13T22:23:30.985Z,100.00
2024-02-13T22:33:37.179Z,100.00
2024-02-13T22:43:43.530Z,100.00
2024-02-13T22:53:49.569Z,100.00
2024-02-13T23:03:55.794Z,100.00
2024-02-13T23:14:02.461Z,100.00
2024-02-13T23:24:09.583Z,100.00
2024-02-13T23:34:16.381Z,100.00
2024-02-13T23:44:24.466Z,100.00
2024-02-13T23:54:30.527Z,100.00
